sensor_id;sensor_type;location;lat;lon;timestamp;temperature;humidity
21335;DHT22;10826;52.536;13.432;2022-07-19T00:02:02;24.50;37.00
21335;DHT22;10826;52.536;13.432;2022-07-19T00:04:29;24.50;37.10
21335;DHT22;10826;52.536;13.432;2022-07-19T00:06:56;24.50;37.20
21335;DHT22;10826;52.536;13.432;2022-07-19T00:09:23;24.40;37.20
21335;DHT22;10826;52.536;13.432;2022-07-19T00:11:50;24.40;37.30
21335;DHT22;10826;52.536;13.432;2022-07-19T00:14:16;24.40;37.40
21335;DHT22;10826;52.536;13.432;2022-07-19T00:16:42;24.30;37.40
21335;DHT22;10826;52.536;13.432;2022-07-19T00:19:08;24.30;37.50
21335;DHT22;10826;52.536;13.432;2022-07-19T00:21:34;24.30;37.50
21335;DHT22;10826;52.536;13.432;2022-07-19T00:24:00;24.20;37.50
21335;DHT22;10826;52.536;13.432;2022-07-19T00:26:30;24.20;37.50
21335;DHT22;10826;52.536;13.432;2022-07-19T00:28:56;24.20;37.60
21335;DHT22;10826;52.536;13.432;2022-07-19T00:31:24;24.20;37.70
21335;DHT22;10826;52.536;13.432;2022-07-19T00:33:51;24.10;37.80
21335;DHT22;10826;52.536;13.432;2022-07-19T00:36:18;24.10;37.80
21335;DHT22;10826;52.536;13.432;2022-07-19T00:38:45;24.10;37.80
21335;DHT22;10826;52.536;13.432;2022-07-19T00:41:12;24.10;37.80
21335;DHT22;10826;52.536;13.432;2022-07-19T00:43:42;24.00;37.80
21335;DHT22;10826;52.536;13.432;2022-07-19T00:46:16;24.00;37.70
21335;DHT22;10826;52.536;13.432;2022-07-19T00:48:45;24.10;37.70
21335;DHT22;10826;52.536;13.432;2022-07-19T00:51:14;24.00;37.80
21335;DHT22;10826;52.536;13.432;2022-07-19T00:53:41;24.00;37.80
21335;DHT22;10826;52.536;13.432;2022-07-19T00:56:10;24.00;37.90
21335;DHT22;10826;52.536;13.432;2022-07-19T00:58:38;23.90;37.90
21335;DHT22;10826;52.536;13.432;2022-07-19T01:01:06;23.90;38.10
21335;DHT22;10826;52.536;13.432;2022-07-19T01:03:38;24.00;38.00
21335;DHT22;10826;52.536;13.432;2022-07-19T01:06:07;24.00;38.00
21335;DHT22;10826;52.536;13.432;2022-07-19T01:08:36;24.00;37.90
21335;DHT22;10826;52.536;13.432;2022-07-19T01:11:06;24.00;37.90
21335;DHT22;10826;52.536;13.432;2022-07-19T01:13:33;24.00;37.80
21335;DHT22;10826;52.536;13.432;2022-07-19T01:15:59;24.00;37.80
21335;DHT22;10826;52.536;13.432;2022-07-19T01:18:26;23.90;37.90
21335;DHT22;10826;52.536;13.432;2022-07-19T01:20:52;23.90;37.90
21335;DHT22;10826;52.536;13.432;2022-07-19T01:23:18;23.90;38.00
21335;DHT22;10826;52.536;13.432;2022-07-19T01:25:44;23.90;37.90
21335;DHT22;10826;52.536;13.432;2022-07-19T01:28:10;23.90;37.90
21335;DHT22;10826;52.536;13.432;2022-07-19T01:30:36;23.90;38.10
21335;DHT22;10826;52.536;13.432;2022-07-19T01:33:03;23.90;38.10
21335;DHT22;10826;52.536;13.432;2022-07-19T01:35:29;23.90;38.10
21335;DHT22;10826;52.536;13.432;2022-07-19T01:37:55;23.90;38.20
21335;DHT22;10826;52.536;13.432;2022-07-19T01:40:22;23.90;38.20
21335;DHT22;10826;52.536;13.432;2022-07-19T01:42:49;23.90;38.10
21335;DHT22;10826;52.536;13.432;2022-07-19T01:45:16;23.90;38.20
21335;DHT22;10826;52.536;13.432;2022-07-19T01:47:43;23.90;38.20
21335;DHT22;10826;52.536;13.432;2022-07-19T01:50:14;23.90;38.20
21335;DHT22;10826;52.536;13.432;2022-07-19T01:52:41;23.90;38.20
21335;DHT22;10826;52.536;13.432;2022-07-19T01:55:08;23.80;38.10
21335;DHT22;10826;52.536;13.432;2022-07-19T01:57:36;23.90;38.20
21335;DHT22;10826;52.536;13.432;2022-07-19T02:00:04;23.90;38.30
21335;DHT22;10826;52.536;13.432;2022-07-19T02:02:31;23.80;38.30
21335;DHT22;10826;52.536;13.432;2022-07-19T02:04:56;23.80;38.30
21335;DHT22;10826;52.536;13.432;2022-07-19T02:07:22;23.80;38.30
21335;DHT22;10826;52.536;13.432;2022-07-19T02:09:48;23.80;38.30
21335;DHT22;10826;52.536;13.432;2022-07-19T02:12:14;23.80;38.30
21335;DHT22;10826;52.536;13.432;2022-07-19T02:14:40;23.80;38.30
21335;DHT22;10826;52.536;13.432;2022-07-19T02:17:06;23.80;38.30
21335;DHT22;10826;52.536;13.432;2022-07-19T02:19:32;23.70;38.30
21335;DHT22;10826;52.536;13.432;2022-07-19T02:21:58;23.70;38.40
21335;DHT22;10826;52.536;13.432;2022-07-19T02:24:24;23.70;38.40
21335;DHT22;10826;52.536;13.432;2022-07-19T02:26:50;23.70;38.40
21335;DHT22;10826;52.536;13.432;2022-07-19T02:29:15;23.70;38.40
21335;DHT22;10826;52.536;13.432;2022-07-19T02:31:41;23.70;38.50
21335;DHT22;10826;52.536;13.432;2022-07-19T02:34:07;23.70;38.50
21335;DHT22;10826;52.536;13.432;2022-07-19T02:36:33;23.70;38.50
21335;DHT22;10826;52.536;13.432;2022-07-19T02:38:59;23.70;38.50
21335;DHT22;10826;52.536;13.432;2022-07-19T02:41:26;23.70;38.60
21335;DHT22;10826;52.536;13.432;2022-07-19T02:43:52;23.70;39.20
21335;DHT22;10826;52.536;13.432;2022-07-19T02:46:17;23.60;38.60
21335;DHT22;10826;52.536;13.432;2022-07-19T02:48:43;23.60;38.70
21335;DHT22;10826;52.536;13.432;2022-07-19T02:51:10;23.60;38.70
21335;DHT22;10826;52.536;13.432;2022-07-19T02:53:39;23.60;38.70
21335;DHT22;10826;52.536;13.432;2022-07-19T02:56:05;23.50;38.90
21335;DHT22;10826;52.536;13.432;2022-07-19T02:58:32;23.50;38.90
21335;DHT22;10826;52.536;13.432;2022-07-19T03:00:58;23.50;39.00
21335;DHT22;10826;52.536;13.432;2022-07-19T03:03:24;23.40;38.90
21335;DHT22;10826;52.536;13.432;2022-07-19T03:06:09;23.50;39.10
21335;DHT22;10826;52.536;13.432;2022-07-19T03:08:37;23.40;39.00
21335;DHT22;10826;52.536;13.432;2022-07-19T03:11:03;23.40;39.10
21335;DHT22;10826;52.536;13.432;2022-07-19T03:13:30;23.40;39.20
21335;DHT22;10826;52.536;13.432;2022-07-19T03:15:56;23.40;39.20
21335;DHT22;10826;52.536;13.432;2022-07-19T03:18:22;23.30;39.40
21335;DHT22;10826;52.536;13.432;2022-07-19T03:20:48;23.40;39.30
21335;DHT22;10826;52.536;13.432;2022-07-19T03:23:14;23.30;39.20
21335;DHT22;10826;52.536;13.432;2022-07-19T03:25:40;23.30;39.30
21335;DHT22;10826;52.536;13.432;2022-07-19T03:28:06;23.30;39.40
21335;DHT22;10826;52.536;13.432;2022-07-19T03:30:32;23.30;39.40
21335;DHT22;10826;52.536;13.432;2022-07-19T03:32:58;23.30;39.40
21335;DHT22;10826;52.536;13.432;2022-07-19T03:35:25;23.30;39.40
21335;DHT22;10826;52.536;13.432;2022-07-19T03:37:51;23.30;39.40
21335;DHT22;10826;52.536;13.432;2022-07-19T03:40:18;23.30;39.50
21335;DHT22;10826;52.536;13.432;2022-07-19T03:42:44;23.30;39.50
21335;DHT22;10826;52.536;13.432;2022-07-19T03:45:10;23.30;39.50
21335;DHT22;10826;52.536;13.432;2022-07-19T03:47:36;23.20;39.40
21335;DHT22;10826;52.536;13.432;2022-07-19T03:50:04;23.30;39.60
21335;DHT22;10826;52.536;13.432;2022-07-19T03:52:30;23.30;39.70
21335;DHT22;10826;52.536;13.432;2022-07-19T03:54:56;23.20;39.50
21335;DHT22;10826;52.536;13.432;2022-07-19T03:57:22;23.20;39.50
21335;DHT22;10826;52.536;13.432;2022-07-19T03:59:48;23.20;39.40
21335;DHT22;10826;52.536;13.432;2022-07-19T04:02:14;23.30;39.60
21335;DHT22;10826;52.536;13.432;2022-07-19T04:04:40;23.20;39.60
21335;DHT22;10826;52.536;13.432;2022-07-19T04:07:06;23.30;39.60
21335;DHT22;10826;52.536;13.432;2022-07-19T04:09:32;23.30;39.70
21335;DHT22;10826;52.536;13.432;2022-07-19T04:11:58;23.30;39.70
21335;DHT22;10826;52.536;13.432;2022-07-19T04:14:24;23.30;39.80
21335;DHT22;10826;52.536;13.432;2022-07-19T04:16:50;23.30;39.80
21335;DHT22;10826;52.536;13.432;2022-07-19T04:19:16;23.30;39.90
21335;DHT22;10826;52.536;13.432;2022-07-19T04:21:43;23.30;40.00
21335;DHT22;10826;52.536;13.432;2022-07-19T04:24:09;23.30;40.00
21335;DHT22;10826;52.536;13.432;2022-07-19T04:26:35;23.30;39.90
21335;DHT22;10826;52.536;13.432;2022-07-19T04:29:01;23.30;39.80
21335;DHT22;10826;52.536;13.432;2022-07-19T04:31:27;23.30;39.80
21335;DHT22;10826;52.536;13.432;2022-07-19T04:33:55;23.40;39.70
21335;DHT22;10826;52.536;13.432;2022-07-19T04:36:21;23.40;39.60
21335;DHT22;10826;52.536;13.432;2022-07-19T04:38:47;23.40;39.40
21335;DHT22;10826;52.536;13.432;2022-07-19T04:41:13;23.40;39.20
21335;DHT22;10826;52.536;13.432;2022-07-19T04:43:39;23.50;39.00
21335;DHT22;10826;52.536;13.432;2022-07-19T04:46:06;23.50;39.50
21335;DHT22;10826;52.536;13.432;2022-07-19T04:48:32;23.50;39.00
21335;DHT22;10826;52.536;13.432;2022-07-19T04:50:58;23.50;39.10
21335;DHT22;10826;52.536;13.432;2022-07-19T04:53:24;23.50;39.60
21335;DHT22;10826;52.536;13.432;2022-07-19T04:55:52;23.50;39.00
21335;DHT22;10826;52.536;13.432;2022-07-19T04:58:18;23.60;39.00
21335;DHT22;10826;52.536;13.432;2022-07-19T05:00:44;23.60;39.00
21335;DHT22;10826;52.536;13.432;2022-07-19T05:03:10;23.60;38.90
21335;DHT22;10826;52.536;13.432;2022-07-19T05:05:36;23.60;38.90
21335;DHT22;10826;52.536;13.432;2022-07-19T05:08:02;23.60;38.70
21335;DHT22;10826;52.536;13.432;2022-07-19T05:10:28;23.70;38.70
21335;DHT22;10826;52.536;13.432;2022-07-19T05:12:54;23.70;38.60
21335;DHT22;10826;52.536;13.432;2022-07-19T05:15:20;23.70;38.40
21335;DHT22;10826;52.536;13.432;2022-07-19T05:17:46;23.70;38.30
21335;DHT22;10826;52.536;13.432;2022-07-19T05:20:12;23.70;38.30
21335;DHT22;10826;52.536;13.432;2022-07-19T05:22:41;23.80;38.10
21335;DHT22;10826;52.536;13.432;2022-07-19T05:25:07;23.90;38.10
21335;DHT22;10826;52.536;13.432;2022-07-19T05:27:35;24.00;38.10
21335;DHT22;10826;52.536;13.432;2022-07-19T05:30:02;24.00;38.00
21335;DHT22;10826;52.536;13.432;2022-07-19T05:32:29;24.10;37.90
21335;DHT22;10826;52.536;13.432;2022-07-19T05:34:55;24.20;37.60
21335;DHT22;10826;52.536;13.432;2022-07-19T05:37:21;24.40;37.50
21335;DHT22;10826;52.536;13.432;2022-07-19T05:39:47;24.50;37.40
21335;DHT22;10826;52.536;13.432;2022-07-19T05:42:12;24.60;37.20
21335;DHT22;10826;52.536;13.432;2022-07-19T05:44:38;24.70;37.10
21335;DHT22;10826;52.536;13.432;2022-07-19T05:47:04;24.80;36.70
21335;DHT22;10826;52.536;13.432;2022-07-19T05:49:30;24.90;36.60
21335;DHT22;10826;52.536;13.432;2022-07-19T05:51:56;25.00;36.20
21335;DHT22;10826;52.536;13.432;2022-07-19T05:54:22;25.20;36.00
21335;DHT22;10826;52.536;13.432;2022-07-19T05:56:48;25.30;35.90
21335;DHT22;10826;52.536;13.432;2022-07-19T05:59:14;25.40;35.60
21335;DHT22;10826;52.536;13.432;2022-07-19T06:01:40;25.50;35.40
21335;DHT22;10826;52.536;13.432;2022-07-19T06:04:06;25.60;35.20
21335;DHT22;10826;52.536;13.432;2022-07-19T06:06:33;25.70;35.00
21335;DHT22;10826;52.536;13.432;2022-07-19T06:09:01;25.80;34.80
21335;DHT22;10826;52.536;13.432;2022-07-19T06:11:28;25.90;34.60
21335;DHT22;10826;52.536;13.432;2022-07-19T06:13:54;26.00;34.90
21335;DHT22;10826;52.536;13.432;2022-07-19T06:16:20;26.00;34.60
21335;DHT22;10826;52.536;13.432;2022-07-19T06:18:47;26.10;34.40
21335;DHT22;10826;52.536;13.432;2022-07-19T06:21:16;26.10;34.20
21335;DHT22;10826;52.536;13.432;2022-07-19T06:23:44;26.20;34.10
21335;DHT22;10826;52.536;13.432;2022-07-19T06:26:11;26.20;34.10
21335;DHT22;10826;52.536;13.432;2022-07-19T06:28:38;26.30;33.90
21335;DHT22;10826;52.536;13.432;2022-07-19T06:31:06;26.30;33.80
21335;DHT22;10826;52.536;13.432;2022-07-19T06:33:38;26.40;33.90
21335;DHT22;10826;52.536;13.432;2022-07-19T06:36:05;26.50;33.80
21335;DHT22;10826;52.536;13.432;2022-07-19T06:38:31;26.60;33.80
21335;DHT22;10826;52.536;13.432;2022-07-19T06:40:57;26.70;33.90
21335;DHT22;10826;52.536;13.432;2022-07-19T06:43:23;26.80;34.00
21335;DHT22;10826;52.536;13.432;2022-07-19T06:45:49;26.90;33.70
21335;DHT22;10826;52.536;13.432;2022-07-19T06:48:15;26.90;33.50
21335;DHT22;10826;52.536;13.432;2022-07-19T06:50:42;27.00;34.10
21335;DHT22;10826;52.536;13.432;2022-07-19T06:53:08;27.00;34.10
21335;DHT22;10826;52.536;13.432;2022-07-19T06:55:35;27.00;33.70
21335;DHT22;10826;52.536;13.432;2022-07-19T06:58:01;27.10;33.00
21335;DHT22;10826;52.536;13.432;2022-07-19T07:00:28;27.10;32.50
21335;DHT22;10826;52.536;13.432;2022-07-19T07:02:54;27.10;32.20
21335;DHT22;10826;52.536;13.432;2022-07-19T07:05:20;27.10;32.00
21335;DHT22;10826;52.536;13.432;2022-07-19T07:07:46;27.20;31.90
21335;DHT22;10826;52.536;13.432;2022-07-19T07:10:13;27.20;31.30
21335;DHT22;10826;52.536;13.432;2022-07-19T07:12:39;27.20;31.00
21335;DHT22;10826;52.536;13.432;2022-07-19T07:15:06;27.20;31.00
21335;DHT22;10826;52.536;13.432;2022-07-19T07:17:36;27.30;30.90
21335;DHT22;10826;52.536;13.432;2022-07-19T07:20:06;27.30;31.00
21335;DHT22;10826;52.536;13.432;2022-07-19T07:22:34;27.30;30.70
21335;DHT22;10826;52.536;13.432;2022-07-19T07:25:02;27.40;30.40
21335;DHT22;10826;52.536;13.432;2022-07-19T07:27:29;27.40;30.40
21335;DHT22;10826;52.536;13.432;2022-07-19T07:29:55;27.40;30.30
21335;DHT22;10826;52.536;13.432;2022-07-19T07:32:21;27.40;29.90
21335;DHT22;10826;52.536;13.432;2022-07-19T07:34:47;27.50;29.70
21335;DHT22;10826;52.536;13.432;2022-07-19T07:37:13;27.60;29.50
21335;DHT22;10826;52.536;13.432;2022-07-19T07:39:39;27.70;28.90
21335;DHT22;10826;52.536;13.432;2022-07-19T07:42:06;27.70;28.90
21335;DHT22;10826;52.536;13.432;2022-07-19T07:44:32;27.80;28.70
21335;DHT22;10826;52.536;13.432;2022-07-19T07:46:58;27.80;29.00
21335;DHT22;10826;52.536;13.432;2022-07-19T07:49:24;27.90;28.90
21335;DHT22;10826;52.536;13.432;2022-07-19T07:51:51;28.00;29.40
21335;DHT22;10826;52.536;13.432;2022-07-19T07:54:18;28.00;28.80
21335;DHT22;10826;52.536;13.432;2022-07-19T07:56:44;28.10;28.70
21335;DHT22;10826;52.536;13.432;2022-07-19T07:59:10;28.10;28.80
21335;DHT22;10826;52.536;13.432;2022-07-19T08:01:36;28.20;28.80
21335;DHT22;10826;52.536;13.432;2022-07-19T08:04:04;28.20;28.50
21335;DHT22;10826;52.536;13.432;2022-07-19T08:06:30;28.30;28.50
21335;DHT22;10826;52.536;13.432;2022-07-19T08:08:56;28.40;28.70
21335;DHT22;10826;52.536;13.432;2022-07-19T08:11:22;28.40;28.70
21335;DHT22;10826;52.536;13.432;2022-07-19T08:13:48;28.50;28.50
21335;DHT22;10826;52.536;13.432;2022-07-19T08:16:14;28.50;28.50
21335;DHT22;10826;52.536;13.432;2022-07-19T08:18:42;28.60;28.70
21335;DHT22;10826;52.536;13.432;2022-07-19T08:21:10;28.60;28.20
21335;DHT22;10826;52.536;13.432;2022-07-19T08:23:36;28.70;28.20
21335;DHT22;10826;52.536;13.432;2022-07-19T08:26:01;28.70;27.80
21335;DHT22;10826;52.536;13.432;2022-07-19T08:28:27;28.80;27.90
21335;DHT22;10826;52.536;13.432;2022-07-19T08:30:54;28.90;27.80
21335;DHT22;10826;52.536;13.432;2022-07-19T08:33:20;28.90;27.90
21335;DHT22;10826;52.536;13.432;2022-07-19T08:35:46;28.90;27.60
21335;DHT22;10826;52.536;13.432;2022-07-19T08:38:11;29.00;28.00
21335;DHT22;10826;52.536;13.432;2022-07-19T08:40:41;29.10;27.70
21335;DHT22;10826;52.536;13.432;2022-07-19T08:43:09;29.10;27.90
21335;DHT22;10826;52.536;13.432;2022-07-19T08:45:36;29.20;27.60
21335;DHT22;10826;52.536;13.432;2022-07-19T08:48:06;29.20;27.60
21335;DHT22;10826;52.536;13.432;2022-07-19T08:50:33;29.30;27.30
21335;DHT22;10826;52.536;13.432;2022-07-19T08:53:01;29.30;27.30
21335;DHT22;10826;52.536;13.432;2022-07-19T08:55:27;29.40;27.10
21335;DHT22;10826;52.536;13.432;2022-07-19T08:57:53;29.40;27.10
21335;DHT22;10826;52.536;13.432;2022-07-19T09:00:26;29.50;26.70
21335;DHT22;10826;52.536;13.432;2022-07-19T09:03:06;29.50;26.50
21335;DHT22;10826;52.536;13.432;2022-07-19T09:05:34;29.70;26.30
21335;DHT22;10826;52.536;13.432;2022-07-19T09:08:10;29.70;25.90
21335;DHT22;10826;52.536;13.432;2022-07-19T09:10:49;29.70;26.30
21335;DHT22;10826;52.536;13.432;2022-07-19T09:13:35;29.80;26.60
21335;DHT22;10826;52.536;13.432;2022-07-19T09:16:02;29.80;26.70
21335;DHT22;10826;52.536;13.432;2022-07-19T09:18:33;29.90;26.50
21335;DHT22;10826;52.536;13.432;2022-07-19T09:21:05;29.90;26.40
21335;DHT22;10826;52.536;13.432;2022-07-19T09:24:12;30.00;26.40
21335;DHT22;10826;52.536;13.432;2022-07-19T09:29:30;30.20;25.90
21335;DHT22;10826;52.536;13.432;2022-07-19T09:32:18;30.20;26.00
21335;DHT22;10826;52.536;13.432;2022-07-19T09:34:51;30.30;25.60
21335;DHT22;10826;52.536;13.432;2022-07-19T09:37:47;30.30;25.70
21335;DHT22;10826;52.536;13.432;2022-07-19T09:40:16;30.30;25.60
21335;DHT22;10826;52.536;13.432;2022-07-19T09:42:44;30.40;25.30
21335;DHT22;10826;52.536;13.432;2022-07-19T09:45:12;30.40;25.70
21335;DHT22;10826;52.536;13.432;2022-07-19T09:47:45;30.50;25.10
21335;DHT22;10826;52.536;13.432;2022-07-19T09:50:15;30.60;25.30
21335;DHT22;10826;52.536;13.432;2022-07-19T09:52:43;30.60;25.30
21335;DHT22;10826;52.536;13.432;2022-07-19T09:55:11;30.60;25.80
21335;DHT22;10826;52.536;13.432;2022-07-19T09:57:51;30.70;24.90
21335;DHT22;10826;52.536;13.432;2022-07-19T10:00:22;30.80;25.00
21335;DHT22;10826;52.536;13.432;2022-07-19T10:02:57;30.80;25.00
21335;DHT22;10826;52.536;13.432;2022-07-19T10:05:28;30.80;24.80
21335;DHT22;10826;52.536;13.432;2022-07-19T10:07:56;30.90;24.90
21335;DHT22;10826;52.536;13.432;2022-07-19T10:11:00;30.90;24.60
21335;DHT22;10826;52.536;13.432;2022-07-19T10:13:27;31.00;24.90
21335;DHT22;10826;52.536;13.432;2022-07-19T10:15:54;31.00;24.40
21335;DHT22;10826;52.536;13.432;2022-07-19T10:18:27;31.10;24.10
21335;DHT22;10826;52.536;13.432;2022-07-19T10:21:03;31.10;23.90
21335;DHT22;10826;52.536;13.432;2022-07-19T10:23:30;31.20;23.80
21335;DHT22;10826;52.536;13.432;2022-07-19T10:25:57;31.20;23.70
21335;DHT22;10826;52.536;13.432;2022-07-19T10:28:33;31.20;23.70
21335;DHT22;10826;52.536;13.432;2022-07-19T10:31:01;31.30;23.50
21335;DHT22;10826;52.536;13.432;2022-07-19T10:33:35;31.30;23.60
21335;DHT22;10826;52.536;13.432;2022-07-19T10:36:32;31.40;23.80
21335;DHT22;10826;52.536;13.432;2022-07-19T10:39:21;31.40;23.60
21335;DHT22;10826;52.536;13.432;2022-07-19T10:50:07;31.60;22.80
21335;DHT22;10826;52.536;13.432;2022-07-19T10:52:47;31.60;22.40
21335;DHT22;10826;52.536;13.432;2022-07-19T11:00:49;31.60;22.20
21335;DHT22;10826;52.536;13.432;2022-07-19T11:03:42;31.60;22.30
21335;DHT22;10826;52.536;13.432;2022-07-19T11:06:20;31.80;22.50
21335;DHT22;10826;52.536;13.432;2022-07-19T11:08:48;31.70;22.00
21335;DHT22;10826;52.536;13.432;2022-07-19T11:11:16;31.70;22.00
21335;DHT22;10826;52.536;13.432;2022-07-19T11:13:46;31.80;22.20
21335;DHT22;10826;52.536;13.432;2022-07-19T11:16:14;31.80;22.30
21335;DHT22;10826;52.536;13.432;2022-07-19T11:18:40;31.80;22.50
21335;DHT22;10826;52.536;13.432;2022-07-19T11:21:11;31.80;22.20
21335;DHT22;10826;52.536;13.432;2022-07-19T11:23:39;31.90;22.00
21335;DHT22;10826;52.536;13.432;2022-07-19T11:26:11;31.90;22.00
21335;DHT22;10826;52.536;13.432;2022-07-19T11:28:48;31.90;21.60
21335;DHT22;10826;52.536;13.432;2022-07-19T11:31:18;31.90;21.80
21335;DHT22;10826;52.536;13.432;2022-07-19T11:33:47;31.90;21.70
21335;DHT22;10826;52.536;13.432;2022-07-19T11:36:15;31.90;21.70
21335;DHT22;10826;52.536;13.432;2022-07-19T11:38:45;31.90;21.80
21335;DHT22;10826;52.536;13.432;2022-07-19T11:41:25;32.00;22.00
21335;DHT22;10826;52.536;13.432;2022-07-19T11:46:37;32.00;21.70
21335;DHT22;10826;52.536;13.432;2022-07-19T11:49:09;32.10;20.90
21335;DHT22;10826;52.536;13.432;2022-07-19T11:51:37;32.10;20.60
21335;DHT22;10826;52.536;13.432;2022-07-19T11:54:06;32.00;20.40
21335;DHT22;10826;52.536;13.432;2022-07-19T11:56:34;32.10;20.60
21335;DHT22;10826;52.536;13.432;2022-07-19T11:59:03;32.10;20.40
21335;DHT22;10826;52.536;13.432;2022-07-19T12:01:33;32.20;20.00
21335;DHT22;10826;52.536;13.432;2022-07-19T12:04:03;32.20;20.00
21335;DHT22;10826;52.536;13.432;2022-07-19T12:09:25;32.30;20.00
21335;DHT22;10826;52.536;13.432;2022-07-19T12:11:55;32.30;20.30
21335;DHT22;10826;52.536;13.432;2022-07-19T12:14:22;32.30;20.00
21335;DHT22;10826;52.536;13.432;2022-07-19T12:17:14;32.20;20.10
21335;DHT22;10826;52.536;13.432;2022-07-19T12:20:08;32.30;20.10
21335;DHT22;10826;52.536;13.432;2022-07-19T12:22:38;32.40;20.30
21335;DHT22;10826;52.536;13.432;2022-07-19T12:25:07;32.30;20.20
21335;DHT22;10826;52.536;13.432;2022-07-19T12:27:35;32.30;20.20
21335;DHT22;10826;52.536;13.432;2022-07-19T12:30:04;32.40;20.20
21335;DHT22;10826;52.536;13.432;2022-07-19T12:32:33;32.50;20.00
21335;DHT22;10826;52.536;13.432;2022-07-19T12:35:07;32.50;20.00
21335;DHT22;10826;52.536;13.432;2022-07-19T12:37:42;32.60;20.10
21335;DHT22;10826;52.536;13.432;2022-07-19T12:42:44;32.60;20.00
21335;DHT22;10826;52.536;13.432;2022-07-19T12:45:23;32.70;19.70
21335;DHT22;10826;52.536;13.432;2022-07-19T12:47:50;32.60;19.70
21335;DHT22;10826;52.536;13.432;2022-07-19T12:50:22;32.70;19.70
21335;DHT22;10826;52.536;13.432;2022-07-19T12:52:52;32.70;19.40
21335;DHT22;10826;52.536;13.432;2022-07-19T12:55:20;32.70;19.60
21335;DHT22;10826;52.536;13.432;2022-07-19T12:57:49;32.70;19.70
21335;DHT22;10826;52.536;13.432;2022-07-19T13:00:17;32.80;19.60
21335;DHT22;10826;52.536;13.432;2022-07-19T13:02:46;32.80;19.60
21335;DHT22;10826;52.536;13.432;2022-07-19T13:05:13;32.80;19.50
21335;DHT22;10826;52.536;13.432;2022-07-19T13:07:39;32.90;19.50
21335;DHT22;10826;52.536;13.432;2022-07-19T13:10:06;32.90;19.50
21335;DHT22;10826;52.536;13.432;2022-07-19T13:12:34;33.00;19.70
21335;DHT22;10826;52.536;13.432;2022-07-19T13:15:01;33.10;19.80
21335;DHT22;10826;52.536;13.432;2022-07-19T13:17:27;33.00;19.80
21335;DHT22;10826;52.536;13.432;2022-07-19T13:19:53;33.10;19.80
21335;DHT22;10826;52.536;13.432;2022-07-19T13:22:19;33.20;19.90
21335;DHT22;10826;52.536;13.432;2022-07-19T13:24:45;33.20;20.00
21335;DHT22;10826;52.536;13.432;2022-07-19T13:27:11;33.20;19.90
21335;DHT22;10826;52.536;13.432;2022-07-19T13:29:37;33.20;19.60
21335;DHT22;10826;52.536;13.432;2022-07-19T13:32:04;33.20;19.60
21335;DHT22;10826;52.536;13.432;2022-07-19T13:34:31;33.20;19.70
21335;DHT22;10826;52.536;13.432;2022-07-19T13:36:57;33.20;19.70
21335;DHT22;10826;52.536;13.432;2022-07-19T13:39:23;33.20;19.70
21335;DHT22;10826;52.536;13.432;2022-07-19T13:41:50;33.30;19.80
21335;DHT22;10826;52.536;13.432;2022-07-19T13:44:17;33.30;19.90
21335;DHT22;10826;52.536;13.432;2022-07-19T13:46:43;33.30;20.00
21335;DHT22;10826;52.536;13.432;2022-07-19T13:49:09;33.30;20.00
21335;DHT22;10826;52.536;13.432;2022-07-19T13:51:35;33.30;20.00
21335;DHT22;10826;52.536;13.432;2022-07-19T13:54:01;33.40;19.80
21335;DHT22;10826;52.536;13.432;2022-07-19T13:56:28;33.40;19.70
21335;DHT22;10826;52.536;13.432;2022-07-19T13:58:53;33.50;19.60
21335;DHT22;10826;52.536;13.432;2022-07-19T14:01:20;33.40;19.60
21335;DHT22;10826;52.536;13.432;2022-07-19T14:03:46;33.40;19.40
21335;DHT22;10826;52.536;13.432;2022-07-19T14:06:14;33.40;19.30
21335;DHT22;10826;52.536;13.432;2022-07-19T14:08:40;33.50;19.40
21335;DHT22;10826;52.536;13.432;2022-07-19T14:11:07;33.50;19.30
21335;DHT22;10826;52.536;13.432;2022-07-19T14:13:33;33.50;19.50
21335;DHT22;10826;52.536;13.432;2022-07-19T14:16:02;33.50;19.40
21335;DHT22;10826;52.536;13.432;2022-07-19T14:18:29;33.60;19.30
21335;DHT22;10826;52.536;13.432;2022-07-19T14:20:56;33.60;19.60
21335;DHT22;10826;52.536;13.432;2022-07-19T14:23:22;33.60;19.50
21335;DHT22;10826;52.536;13.432;2022-07-19T14:25:48;33.60;19.30
21335;DHT22;10826;52.536;13.432;2022-07-19T14:28:15;33.60;19.50
21335;DHT22;10826;52.536;13.432;2022-07-19T14:30:42;33.60;19.40
21335;DHT22;10826;52.536;13.432;2022-07-19T14:33:09;33.70;19.70
21335;DHT22;10826;52.536;13.432;2022-07-19T14:35:35;33.70;19.50
21335;DHT22;10826;52.536;13.432;2022-07-19T14:38:02;33.70;19.40
21335;DHT22;10826;52.536;13.432;2022-07-19T14:40:29;33.70;19.20
21335;DHT22;10826;52.536;13.432;2022-07-19T14:42:56;33.70;19.40
21335;DHT22;10826;52.536;13.432;2022-07-19T14:45:22;33.70;19.10
21335;DHT22;10826;52.536;13.432;2022-07-19T14:47:48;33.70;18.90
21335;DHT22;10826;52.536;13.432;2022-07-19T14:50:15;33.80;19.10
21335;DHT22;10826;52.536;13.432;2022-07-19T14:52:41;33.80;19.10
21335;DHT22;10826;52.536;13.432;2022-07-19T14:55:10;33.80;19.10
21335;DHT22;10826;52.536;13.432;2022-07-19T14:57:37;34.00;19.20
21335;DHT22;10826;52.536;13.432;2022-07-19T15:00:07;33.90;18.70
21335;DHT22;10826;52.536;13.432;2022-07-19T15:02:35;34.00;19.20
21335;DHT22;10826;52.536;13.432;2022-07-19T15:05:01;34.00;19.20
21335;DHT22;10826;52.536;13.432;2022-07-19T15:07:28;34.00;19.20
21335;DHT22;10826;52.536;13.432;2022-07-19T15:09:55;34.00;19.20
21335;DHT22;10826;52.536;13.432;2022-07-19T15:12:22;34.00;19.10
21335;DHT22;10826;52.536;13.432;2022-07-19T15:14:49;34.00;18.60
21335;DHT22;10826;52.536;13.432;2022-07-19T15:17:16;34.10;18.40
21335;DHT22;10826;52.536;13.432;2022-07-19T15:19:42;34.10;18.50
21335;DHT22;10826;52.536;13.432;2022-07-19T15:22:08;34.20;18.60
21335;DHT22;10826;52.536;13.432;2022-07-19T15:24:35;34.10;18.80
21335;DHT22;10826;52.536;13.432;2022-07-19T15:27:00;34.20;19.00
21335;DHT22;10826;52.536;13.432;2022-07-19T15:29:26;34.10;18.90
21335;DHT22;10826;52.536;13.432;2022-07-19T15:31:52;34.10;18.70
21335;DHT22;10826;52.536;13.432;2022-07-19T15:34:19;34.20;18.80
21335;DHT22;10826;52.536;13.432;2022-07-19T15:36:45;34.10;18.90
21335;DHT22;10826;52.536;13.432;2022-07-19T15:39:11;34.20;18.90
21335;DHT22;10826;52.536;13.432;2022-07-19T15:41:37;34.20;19.10
21335;DHT22;10826;52.536;13.432;2022-07-19T15:44:03;34.20;18.70
21335;DHT22;10826;52.536;13.432;2022-07-19T15:46:30;34.20;18.50